Time;durP1;ratioP1;P1;durP2;ratioP2;P2;SDS_P1;SDS_P2;PMS_P1;PMS_P2;Temp;Humidity;BMP_temperature;BMP_pressure;BME280_temperature;BME280_humidity;BME280_pressure;Samples;Min_cycle;Max_cycle;Signal;HPM_P1;HPM_P2
2022/08/26 00:02:16;;;;;;;4.47;1.73;;;;;;;;;;6190965;23;20196;-81
2022/08/26 00:04:48;;;;;;;0.87;0.70;;;;;;;;;;6216759;23;20167;-81
2022/08/26 00:07:17;;;;;;;20.03;0.90;;;;;;;;;;6190328;23;20177;-82
2022/08/26 00:09:46;;;;;;;11.80;1.47;;;;;;;;;;6190709;23;20182;-81
2022/08/26 00:12:16;;;;;;;0.67;0.67;;;;;;;;;;6190490;23;20198;-81
2022/08/26 00:14:45;;;;;;;1.60;1.50;;;;;;;;;;6190413;23;20185;-81
2022/08/26 00:17:13;;;;;;;7.37;3.50;;;;;;;;;;6190064;23;20178;-81
2022/08/26 00:19:42;;;;;;;0.90;0.63;;;;;;;;;;6216712;23;20170;-81
2022/08/26 00:22:11;;;;;;;0.50;0.50;;;;;;;;;;6189883;23;20193;-81
2022/08/26 00:24:50;;;;;;;1.20;0.80;;;;;;;;;;6190440;23;20174;-80
2022/08/26 00:27:20;;;;;;;0.83;0.83;;;;;;;;;;6190042;23;20178;-81
2022/08/26 00:29:49;;;;;;;4.27;1.30;;;;;;;;;;6190417;23;20187;-81
2022/08/26 00:32:17;;;;;;;3.80;1.80;;;;;;;;;;6190307;23;20257;-81
2022/08/26 00:34:46;;;;;;;2.73;1.03;;;;;;;;;;6216573;23;20186;-81
2022/08/26 00:37:15;;;;;;;0.50;0.50;;;;;;;;;;6216369;23;20283;-81
2022/08/26 00:39:44;;;;;;;0.57;0.57;;;;;;;;;;6190471;23;20187;-81
2022/08/26 00:42:13;;;;;;;15.93;2.23;;;;;;;;;;6216214;23;20182;-81
2022/08/26 00:44:44;;;;;;;1.73;1.27;;;;;;;;;;6190443;23;20265;-81
2022/08/26 00:47:18;;;;;;;8.27;4.47;;;;;;;;;;6216346;23;20174;-81
2022/08/26 00:49:48;;;;;;;2.83;0.63;;;;;;;;;;6216300;23;20166;-81
2022/08/26 00:52:20;;;;;;;1.10;0.50;;;;;;;;;;6190213;23;20184;-81
2022/08/26 00:54:54;;;;;;;2.20;1.53;;;;;;;;;;6190061;23;20216;-81
2022/08/26 00:57:24;;;;;;;0.93;0.93;;;;;;;;;;6216347;23;20178;-81
2022/08/26 00:59:57;;;;;;;0.93;0.90;;;;;;;;;;6189600;23;20235;-81
2022/08/26 01:02:25;;;;;;;1.03;0.93;;;;;;;;;;6189755;23;20274;-81
2022/08/26 01:04:58;;;;;;;1.70;1.40;;;;;;;;;;6188319;23;20183;-81
2022/08/26 01:07:28;;;;;;;1.00;0.93;;;;;;;;;;6216130;23;20203;-81
2022/08/26 01:09:59;;;;;;;0.53;0.53;;;;;;;;;;6216331;23;20187;-81
2022/08/26 01:12:29;;;;;;;2.83;1.43;;;;;;;;;;6189950;23;20174;-81
2022/08/26 01:14:59;;;;;;;1.70;0.90;;;;;;;;;;6216160;23;20233;-82
2022/08/26 01:17:27;;;;;;;1.50;0.97;;;;;;;;;;6189442;23;20177;-81
2022/08/26 01:20:00;;;;;;;2.33;1.87;;;;;;;;;;6189560;23;20172;-82
2022/08/26 01:22:31;;;;;;;0.70;0.70;;;;;;;;;;6190145;23;20262;-81
2022/08/26 01:25:02;;;;;;;0.40;0.40;;;;;;;;;;6216070;23;20167;-81
2022/08/26 01:27:31;;;;;;;0.60;0.60;;;;;;;;;;6189718;23;20181;-81
2022/08/26 01:30:01;;;;;;;0.33;0.33;;;;;;;;;;6189794;23;20177;-82
2022/08/26 01:32:31;;;;;;;2.80;0.70;;;;;;;;;;6189635;23;20167;-82
2022/08/26 01:35:01;;;;;;;0.60;0.60;;;;;;;;;;6189675;23;20201;-82
2022/08/26 01:37:34;;;;;;;0.30;0.30;;;;;;;;;;6215638;23;20195;-81
2022/08/26 01:40:08;;;;;;;0.60;0.57;;;;;;;;;;6216477;23;20170;-82
2022/08/26 01:42:37;;;;;;;1.67;0.90;;;;;;;;;;6189356;23;20196;-82
2022/08/26 01:45:09;;;;;;;0.50;0.50;;;;;;;;;;6190149;23;20253;-82
2022/08/26 01:47:39;;;;;;;0.60;0.60;;;;;;;;;;6189451;23;20181;-81
2022/08/26 01:50:11;;;;;;;0.93;0.83;;;;;;;;;;6189741;23;20238;-82
2022/08/26 01:52:44;;;;;;;0.50;0.50;;;;;;;;;;6189103;23;20200;-82
2022/08/26 01:55:21;;;;;;;4.03;1.07;;;;;;;;;;6215843;23;20257;-81
2022/08/26 01:58:03;;;;;;;1.60;1.17;;;;;;;;;;6189455;23;20228;-82
2022/08/26 02:00:33;;;;;;;0.60;0.60;;;;;;;;;;6189293;23;20183;-82
2022/08/26 02:05:45;;;;;;;0.40;0.40;;;;;;;;;;6212427;23;20178;-81
2022/08/26 02:08:18;;;;;;;0.57;0.57;;;;;;;;;;6215778;23;20170;-82
2022/08/26 02:10:53;;;;;;;1.93;0.80;;;;;;;;;;6189629;23;20189;-81
2022/08/26 02:13:24;;;;;;;0.40;0.40;;;;;;;;;;6215305;23;20243;-81
2022/08/26 02:15:53;;;;;;;0.40;0.40;;;;;;;;;;6189281;23;20185;-82
2022/08/26 02:18:22;;;;;;;0.50;0.50;;;;;;;;;;6189451;23;20191;-82
2022/08/26 02:20:53;;;;;;;0.50;0.50;;;;;;;;;;6215815;23;20193;-81
2022/08/26 02:23:21;;;;;;;0.30;0.30;;;;;;;;;;6188960;23;20194;-81
2022/08/26 02:25:56;;;;;;;0.50;0.50;;;;;;;;;;6189299;23;20175;-81
2022/08/26 02:28:26;;;;;;;0.50;0.50;;;;;;;;;;6189176;23;20177;-81
2022/08/26 02:30:55;;;;;;;1.40;0.93;;;;;;;;;;6189230;23;20209;-81
2022/08/26 02:33:24;;;;;;;0.60;0.60;;;;;;;;;;6189077;23;20177;-81
2022/08/26 02:35:55;;;;;;;0.70;0.70;;;;;;;;;;6189474;23;20281;-81
2022/08/26 02:38:23;;;;;;;2.90;0.53;;;;;;;;;;6185272;23;20236;-81
2022/08/26 02:40:51;;;;;;;0.50;0.50;;;;;;;;;;6159297;23;20186;-81
2022/08/26 02:43:21;;;;;;;0.50;0.50;;;;;;;;;;6159160;23;20207;-81
2022/08/26 02:45:59;;;;;;;0.70;0.70;;;;;;;;;;6185821;23;20170;-81
2022/08/26 02:48:30;;;;;;;1.40;0.80;;;;;;;;;;6185472;23;20166;-80
2022/08/26 02:51:00;;;;;;;0.40;0.40;;;;;;;;;;6185670;23;20182;-81
2022/08/26 02:53:28;;;;;;;0.73;0.60;;;;;;;;;;6159260;23;20175;-81
2022/08/26 02:55:59;;;;;;;2.37;1.00;;;;;;;;;;6185159;23;20226;-80
2022/08/26 02:58:29;;;;;;;0.60;0.50;;;;;;;;;;6159056;23;20181;-81
2022/08/26 03:00:58;;;;;;;1.43;1.27;;;;;;;;;;6159163;23;20177;-81
2022/08/26 03:03:28;;;;;;;7.77;1.43;;;;;;;;;;6185365;23;20274;-81
2022/08/26 03:05:58;;;;;;;0.50;0.50;;;;;;;;;;6159665;23;20201;-81
2022/08/26 03:08:26;;;;;;;1.70;0.77;;;;;;;;;;6185520;23;20253;-81
2022/08/26 03:10:55;;;;;;;0.40;0.40;;;;;;;;;;6185203;23;20178;-81
2022/08/26 03:13:23;;;;;;;0.73;0.70;;;;;;;;;;6159307;23;20181;-81
2022/08/26 03:15:53;;;;;;;0.30;0.30;;;;;;;;;;6185268;23;20174;-81
2022/08/26 03:18:23;;;;;;;5.67;0.77;;;;;;;;;;6185100;23;20182;-81
2022/08/26 03:20:51;;;;;;;2.93;1.03;;;;;;;;;;6159117;23;20179;-81
2022/08/26 03:23:20;;;;;;;0.67;0.67;;;;;;;;;;6159164;23;20203;-81
2022/08/26 03:25:50;;;;;;;1.20;1.10;;;;;;;;;;6187278;23;20227;-81
2022/08/26 03:28:19;;;;;;;0.57;0.57;;;;;;;;;;6187387;23;20178;-81
2022/08/26 03:30:48;;;;;;;0.80;0.80;;;;;;;;;;6187553;23;20172;-81
2022/08/26 03:33:18;;;;;;;0.30;0.30;;;;;;;;;;6187085;23;20178;-81
2022/08/26 03:35:47;;;;;;;0.27;0.27;;;;;;;;;;6161527;23;20261;-81
2022/08/26 03:38:18;;;;;;;1.00;0.60;;;;;;;;;;6161020;23;20217;-81
2022/08/26 03:40:46;;;;;;;0.50;0.50;;;;;;;;;;6161073;23;20178;-81
2022/08/26 03:43:16;;;;;;;0.40;0.40;;;;;;;;;;6161023;23;20182;-81
2022/08/26 03:45:44;;;;;;;0.70;0.70;;;;;;;;;;6160936;23;20225;-81
2022/08/26 03:48:13;;;;;;;0.40;0.40;;;;;;;;;;6161224;23;20266;-81
2022/08/26 03:50:43;;;;;;;1.80;0.60;;;;;;;;;;6161064;23;20184;-81
2022/08/26 03:53:11;;;;;;;0.60;0.60;;;;;;;;;;6186978;23;20176;-81
2022/08/26 03:55:41;;;;;;;0.80;0.57;;;;;;;;;;6187048;23;20167;-81
2022/08/26 03:58:11;;;;;;;0.50;0.50;;;;;;;;;;6160602;23;20226;-81
2022/08/26 04:00:39;;;;;;;4.30;1.73;;;;;;;;;;6187024;23;20198;-81
2022/08/26 04:03:10;;;;;;;2.03;1.23;;;;;;;;;;6160957;23;20182;-81
2022/08/26 04:05:46;;;;;;;0.50;0.40;;;;;;;;;;6160531;23;20234;-81
2022/08/26 04:08:15;;;;;;;1.30;1.17;;;;;;;;;;6186686;23;20171;-81
2022/08/26 04:10:46;;;;;;;2.93;1.47;;;;;;;;;;6160914;23;20180;-81
2022/08/26 04:13:18;;;;;;;2.00;0.70;;;;;;;;;;6160836;23;20182;-81
2022/08/26 04:15:46;;;;;;;0.53;0.53;;;;;;;;;;6186608;23;20182;-81
2022/08/26 04:18:15;;;;;;;0.30;0.30;;;;;;;;;;6160577;23;20184;-81
2022/08/26 04:20:48;;;;;;;0.37;0.37;;;;;;;;;;6186870;23;20175;-81
2022/08/26 04:23:16;;;;;;;1.17;0.53;;;;;;;;;;6186564;23;20171;-81
2022/08/26 04:25:45;;;;;;;1.20;0.80;;;;;;;;;;6160392;23;20284;-82
2022/08/26 04:28:13;;;;;;;1.27;0.90;;;;;;;;;;6160397;23;20179;-82
2022/08/26 04:30:45;;;;;;;5.43;1.07;;;;;;;;;;6160353;23;20248;-81
2022/08/26 04:33:13;;;;;;;2.43;1.30;;;;;;;;;;6160786;23;20181;-81
2022/08/26 04:35:42;;;;;;;2.67;0.60;;;;;;;;;;6160345;23;20197;-82
2022/08/26 04:38:13;;;;;;;0.67;0.67;;;;;;;;;;6213984;23;20198;-81
2022/08/26 04:40:43;;;;;;;1.70;0.70;;;;;;;;;;6190505;23;20187;-81
2022/08/26 04:43:14;;;;;;;0.43;0.43;;;;;;;;;;6216890;23;20209;-81
2022/08/26 04:45:43;;;;;;;4.53;1.60;;;;;;;;;;6190103;23;20206;-81
2022/08/26 04:48:11;;;;;;;2.63;1.13;;;;;;;;;;6216767;23;20175;-81
2022/08/26 04:50:44;;;;;;;1.80;1.00;;;;;;;;;;6216790;23;20175;-82
2022/08/26 04:53:20;;;;;;;1.47;0.80;;;;;;;;;;6189966;23;20261;-81
2022/08/26 04:55:49;;;;;;;0.70;0.70;;;;;;;;;;6216273;23;20170;-81
2022/08/26 04:58:23;;;;;;;2.03;0.70;;;;;;;;;;6190548;23;20217;-82
2022/08/26 05:00:53;;;;;;;1.73;1.63;;;;;;;;;;6216007;23;20167;-81
2022/08/26 05:03:22;;;;;;;1.70;1.03;;;;;;;;;;6190601;23;20178;-81
2022/08/26 05:05:51;;;;;;;3.63;1.43;;;;;;;;;;6189781;23;20252;-81
2022/08/26 05:08:22;;;;;;;5.07;1.67;;;;;;;;;;6190487;23;20184;-81
2022/08/26 05:10:51;;;;;;;1.27;1.20;;;;;;;;;;6216280;23;20194;-81
2022/08/26 05:13:21;;;;;;;1.77;1.13;;;;;;;;;;6216266;23;20168;-81
2022/08/26 05:15:50;;;;;;;2.90;1.77;;;;;;;;;;6189709;23;20167;-81
2022/08/26 05:18:20;;;;;;;5.20;1.03;;;;;;;;;;6216086;23;20194;-81
2022/08/26 05:20:51;;;;;;;1.37;1.13;;;;;;;;;;6189766;23;20180;-82
2022/08/26 05:23:24;;;;;;;1.60;0.53;;;;;;;;;;6189841;23;20185;-81
2022/08/26 05:25:53;;;;;;;3.20;0.53;;;;;;;;;;6216183;23;20185;-81
2022/08/26 05:28:27;;;;;;;1.20;1.13;;;;;;;;;;6189522;23;20247;-81
2022/08/26 05:30:56;;;;;;;0.90;0.83;;;;;;;;;;6190367;23;20192;-81
2022/08/26 05:33:25;;;;;;;0.73;0.73;;;;;;;;;;6189542;23;20183;-81
2022/08/26 05:35:54;;;;;;;4.90;0.97;;;;;;;;;;6215848;23;20194;-81
2022/08/26 05:38:23;;;;;;;5.43;0.90;;;;;;;;;;6189447;23;20232;-81
2022/08/26 05:40:57;;;;;;;1.27;0.60;;;;;;;;;;6215897;23;20166;-82
2022/08/26 05:43:26;;;;;;;0.43;0.40;;;;;;;;;;6189416;23;20269;-81
2022/08/26 05:45:55;;;;;;;1.53;0.63;;;;;;;;;;6189436;23;20203;-81
2022/08/26 05:48:24;;;;;;;0.60;0.60;;;;;;;;;;6189467;23;20185;-81
2022/08/26 05:50:53;;;;;;;0.77;0.70;;;;;;;;;;6215817;23;20175;-82
2022/08/26 05:53:24;;;;;;;0.50;0.50;;;;;;;;;;6215846;23;20171;-80
2022/08/26 05:55:54;;;;;;;0.43;0.43;;;;;;;;;;6189483;23;20174;-82
2022/08/26 05:58:23;;;;;;;1.37;1.10;;;;;;;;;;6189369;23;20183;-81
2022/08/26 06:00:58;;;;;;;1.10;0.60;;;;;;;;;;6189083;23;20187;-81
2022/08/26 06:03:27;;;;;;;0.70;0.63;;;;;;;;;;6189714;23;20281;-81
2022/08/26 06:05:56;;;;;;;1.13;0.60;;;;;;;;;;6215983;23;20188;-81
2022/08/26 06:08:26;;;;;;;8.83;0.87;;;;;;;;;;6189523;23;20181;-81
2022/08/26 06:10:55;;;;;;;1.93;0.50;;;;;;;;;;6189249;23;20185;-81
2022/08/26 06:13:25;;;;;;;1.50;0.50;;;;;;;;;;6215743;23;20183;-81
2022/08/26 06:15:54;;;;;;;0.60;0.60;;;;;;;;;;6189813;23;20239;-82
2022/08/26 06:18:26;;;;;;;0.30;0.30;;;;;;;;;;6189005;23;20174;-81
2022/08/26 06:20:56;;;;;;;8.93;0.80;;;;;;;;;;6215572;23;20180;-81
2022/08/26 06:26:14;;;;;;;12.00;1.10;;;;;;;;;;6189211;23;20201;-81
2022/08/26 06:28:43;;;;;;;1.37;0.90;;;;;;;;;;6189278;23;20173;-82
2022/08/26 06:31:13;;;;;;;0.37;0.37;;;;;;;;;;6215515;23;20186;-81
2022/08/26 06:33:42;;;;;;;1.10;0.80;;;;;;;;;;6188960;23;20181;-81
2022/08/26 06:36:15;;;;;;;0.93;0.70;;;;;;;;;;6189172;23;20203;-81
2022/08/26 06:38:47;;;;;;;0.93;0.60;;;;;;;;;;6188531;23;20214;-82
2022/08/26 06:41:16;;;;;;;0.90;0.90;;;;;;;;;;6213090;23;20178;-82
2022/08/26 06:43:45;;;;;;;4.70;0.97;;;;;;;;;;6186518;23;20190;-81
2022/08/26 06:46:15;;;;;;;1.83;0.70;;;;;;;;;;6186669;23;20201;-82
2022/08/26 06:48:43;;;;;;;0.93;0.70;;;;;;;;;;6188553;23;20178;-82
2022/08/26 06:51:14;;;;;;;0.87;0.67;;;;;;;;;;6188116;23;20182;-82
2022/08/26 06:53:48;;;;;;;1.07;1.00;;;;;;;;;;6214552;23;20166;-81
2022/08/26 06:56:20;;;;;;;1.63;1.53;;;;;;;;;;6214499;23;20177;-81
2022/08/26 06:58:49;;;;;;;1.93;1.07;;;;;;;;;;6188989;23;20196;-81
2022/08/26 07:57:33;;;;;;;1.87;0.60;;;;;;;;;;5685232;24;20238;-83
2022/08/26 08:00:02;;;;;;;3.30;1.83;;;;;;;;;;5776459;24;20211;-83
2022/08/26 08:02:33;;;;;;;2.57;0.70;;;;;;;;;;5899014;24;20228;-82
2022/08/26 08:05:02;;;;;;;0.60;0.37;;;;;;;;;;5899211;24;20191;-82
2022/08/26 08:07:31;;;;;;;1.60;0.77;;;;;;;;;;5876256;24;20238;-83
2022/08/26 08:10:14;;;;;;;0.90;0.83;;;;;;;;;;5875891;24;20181;-83
2022/08/26 08:12:46;;;;;;;0.53;0.53;;;;;;;;;;5941785;24;20255;-83
2022/08/26 08:15:18;;;;;;;11.23;0.97;;;;;;;;;;5953566;24;20191;-83
2022/08/26 08:17:50;;;;;;;0.83;0.80;;;;;;;;;;5930998;24;20221;-83
2022/08/26 08:20:19;;;;;;;0.60;0.60;;;;;;;;;;5930501;24;20190;-83
2022/08/26 08:22:51;;;;;;;1.80;0.40;;;;;;;;;;5977952;23;20198;-83
2022/08/26 08:25:21;;;;;;;0.83;0.50;;;;;;;;;;6014189;23;20183;-82
2022/08/26 08:27:54;;;;;;;0.40;0.40;;;;;;;;;;6123833;23;20193;-82
2022/08/26 08:30:27;;;;;;;0.40;0.40;;;;;;;;;;6190447;23;20237;-83
2022/08/26 08:33:02;;;;;;;0.20;0.20;;;;;;;;;;6190605;23;20227;-82
2022/08/26 08:35:43;;;;;;;0.57;0.53;;;;;;;;;;6190366;23;20199;-82
2022/08/26 08:38:14;;;;;;;1.60;0.50;;;;;;;;;;6190355;23;20196;-82
2022/08/26 08:40:44;;;;;;;1.03;0.50;;;;;;;;;;6190410;23;20239;-83
2022/08/26 08:43:18;;;;;;;3.10;0.57;;;;;;;;;;6190026;23;20181;-83
2022/08/26 08:45:52;;;;;;;1.77;0.77;;;;;;;;;;6190171;23;22134;-83
2022/08/26 08:48:26;;;;;;;0.67;0.67;;;;;;;;;;6189965;23;20185;-83
2022/08/26 08:50:57;;;;;;;1.50;0.73;;;;;;;;;;6189360;23;20180;-83
2022/08/26 08:53:32;;;;;;;1.83;0.80;;;;;;;;;;6190325;23;20227;-83
2022/08/26 08:56:11;;;;;;;3.43;0.97;;;;;;;;;;6189379;23;20198;-83
2022/08/26 08:58:56;;;;;;;0.50;0.50;;;;;;;;;;6189599;23;20180;-83
2022/08/26 09:01:32;;;;;;;1.93;0.60;;;;;;;;;;6190053;23;20261;-83
2022/08/26 09:04:28;;;;;;;2.57;0.90;;;;;;;;;;6189799;23;20188;-83
2022/08/26 09:07:00;;;;;;;1.07;0.90;;;;;;;;;;6189721;23;20196;-83
2022/08/26 09:09:36;;;;;;;0.97;0.97;;;;;;;;;;6189811;23;20178;-83
2022/08/26 09:12:08;;;;;;;1.80;0.83;;;;;;;;;;6189017;23;20176;-83
2022/08/26 09:14:40;;;;;;;0.67;0.67;;;;;;;;;;6190243;23;20189;-83
2022/08/26 09:17:14;;;;;;;1.33;1.07;;;;;;;;;;6190125;23;20170;-83
2022/08/26 09:19:48;;;;;;;0.53;0.53;;;;;;;;;;6190012;23;20262;-83
2022/08/26 09:22:29;;;;;;;1.60;0.70;;;;;;;;;;6190122;23;20186;-83
2022/08/26 09:24:57;;;;;;;1.30;0.60;;;;;;;;;;6190184;23;20182;-83
2022/08/26 09:27:40;;;;;;;0.70;0.70;;;;;;;;;;6189666;23;20191;-83
2022/08/26 09:30:12;;;;;;;2.60;0.80;;;;;;;;;;6189858;23;20266;-83
2022/08/26 09:32:42;;;;;;;6.30;1.03;;;;;;;;;;6190077;23;20179;-83
2022/08/26 09:35:25;;;;;;;3.00;1.07;;;;;;;;;;6190109;23;20195;-83
2022/08/26 09:38:03;;;;;;;10.27;1.07;;;;;;;;;;6189667;23;20223;-83
2022/08/26 09:40:39;;;;;;;4.20;1.57;;;;;;;;;;6189504;23;20209;-83
2022/08/26 09:43:16;;;;;;;0.60;0.60;;;;;;;;;;6189606;23;20195;-83
2022/08/26 09:54:19;;;;;;;;;;;;;;;;;;;;;
2022/08/26 10:01:31;;;;;;;0.80;0.80;;;;;;;;;;5908523;24;20225;-83
2022/08/26 10:04:04;;;;;;;0.70;0.70;;;;;;;;;;5969356;23;20258;-83
2022/08/26 10:06:37;;;;;;;0.40;0.40;;;;;;;;;;6070828;23;20246;-83
2022/08/26 10:09:16;;;;;;;0.30;0.30;;;;;;;;;;6094239;23;20214;-83
2022/08/26 10:11:50;;;;;;;1.80;0.80;;;;;;;;;;6094594;23;20190;-83
2022/08/26 10:14:24;;;;;;;8.37;1.53;;;;;;;;;;6070474;23;20195;-83
2022/08/26 10:24:47;;;;;;;2.87;0.83;;;;;;;;;;6094892;23;20145;-83
2022/08/26 10:27:25;;;;;;;0.73;0.73;;;;;;;;;;6095755;23;20202;-84
2022/08/26 10:29:57;;;;;;;0.50;0.50;;;;;;;;;;6189501;23;20176;-84
2022/08/26 10:32:28;;;;;;;0.73;0.50;;;;;;;;;;6189224;23;20176;-84
2022/08/26 10:35:01;;;;;;;4.70;1.07;;;;;;;;;;6189582;23;20198;-84
2022/08/26 10:37:34;;;;;;;0.40;0.40;;;;;;;;;;6189463;23;20171;-84
2022/08/26 10:40:10;;;;;;;3.83;0.90;;;;;;;;;;6188760;23;20209;-84
2022/08/26 10:42:40;;;;;;;1.10;1.00;;;;;;;;;;6189181;23;20177;-83
2022/08/26 10:45:11;;;;;;;1.70;1.20;;;;;;;;;;6189467;23;20186;-84
2022/08/26 10:47:46;;;;;;;1.43;1.33;;;;;;;;;;6189306;23;20226;-84
2022/08/26 10:50:15;;;;;;;3.03;1.03;;;;;;;;;;6189244;23;20203;-84
2022/08/26 10:52:53;;;;;;;2.93;0.73;;;;;;;;;;6188988;23;20247;-83
2022/08/26 10:55:28;;;;;;;3.10;0.77;;;;;;;;;;6188652;23;20185;-83
2022/08/26 10:58:12;;;;;;;4.23;1.03;;;;;;;;;;6189297;23;20171;-84
2022/08/26 11:03:54;;;;;;;0.67;0.67;;;;;;;;;;6189226;23;20272;-84
2022/08/26 11:06:27;;;;;;;2.47;1.30;;;;;;;;;;6189545;23;20174;-84
2022/08/26 11:08:57;;;;;;;0.83;0.70;;;;;;;;;;6189345;23;20264;-84
2022/08/26 11:11:51;;;;;;;0.87;0.60;;;;;;;;;;6189222;23;20177;-84
2022/08/26 11:14:34;;;;;;;0.57;0.57;;;;;;;;;;6189240;23;20231;-84
2022/08/26 11:17:40;;;;;;;0.60;0.60;;;;;;;;;;6189366;23;20171;-84
2022/08/26 11:20:10;;;;;;;0.60;0.60;;;;;;;;;;6188850;23;20174;-84
2022/08/26 11:22:41;;;;;;;1.03;0.97;;;;;;;;;;6189206;23;20172;-84
2022/08/26 11:25:19;;;;;;;1.43;0.40;;;;;;;;;;6188826;23;20178;-84
2022/08/26 11:27:59;;;;;;;1.10;0.97;;;;;;;;;;6189212;23;20214;-85
2022/08/26 11:30:36;;;;;;;2.47;1.23;;;;;;;;;;6189247;23;20179;-84
2022/08/26 11:33:06;;;;;;;1.73;0.80;;;;;;;;;;6215224;23;20168;-84
2022/08/26 11:35:51;;;;;;;4.67;0.90;;;;;;;;;;6188300;23;20197;-84
2022/08/26 11:38:28;;;;;;;3.67;1.10;;;;;;;;;;6188969;23;20171;-84
2022/08/26 11:41:07;;;;;;;1.57;1.27;;;;;;;;;;6189253;23;20284;-84
2022/08/26 11:43:39;;;;;;;5.60;0.83;;;;;;;;;;6188818;23;20177;-84
2022/08/26 11:46:10;;;;;;;0.97;0.80;;;;;;;;;;6190582;23;20176;-83
2022/08/26 11:48:41;;;;;;;1.13;0.90;;;;;;;;;;6190674;23;20203;-84
2022/08/26 11:51:11;;;;;;;0.40;0.40;;;;;;;;;;6190335;23;20252;-83
2022/08/26 11:53:41;;;;;;;1.47;0.77;;;;;;;;;;6191283;23;20181;-83
2022/08/26 11:56:12;;;;;;;0.87;0.83;;;;;;;;;;6190543;23;20172;-84
2022/08/26 11:58:46;;;;;;;2.53;1.00;;;;;;;;;;6190899;23;20202;-83
2022/08/26 12:01:26;;;;;;;1.17;0.80;;;;;;;;;;6190702;23;20178;-83
2022/08/26 12:04:00;;;;;;;1.20;1.10;;;;;;;;;;6190377;23;20182;-84
2022/08/26 12:06:34;;;;;;;3.50;1.43;;;;;;;;;;6190930;23;20262;-84
2022/08/26 12:09:15;;;;;;;2.40;1.60;;;;;;;;;;6189941;23;20223;-84
2022/08/26 12:11:46;;;;;;;2.83;1.10;;;;;;;;;;6190407;23;20188;-83
2022/08/26 12:14:20;;;;;;;1.20;1.03;;;;;;;;;;6190718;23;20176;-83
2022/08/26 12:16:52;;;;;;;1.23;0.70;;;;;;;;;;6190707;23;20179;-83
2022/08/26 12:19:25;;;;;;;2.27;1.03;;;;;;;;;;6190420;23;20176;-83
2022/08/26 12:21:56;;;;;;;5.27;0.80;;;;;;;;;;6190601;23;20178;-84
2022/08/26 12:24:25;;;;;;;3.37;0.83;;;;;;;;;;6190250;23;20180;-83
2022/08/26 12:27:11;;;;;;;0.47;0.47;;;;;;;;;;6190527;23;20238;-83
2022/08/26 12:29:42;;;;;;;1.23;1.23;;;;;;;;;;6186553;23;20176;-84
2022/08/26 12:32:20;;;;;;;0.57;0.57;;;;;;;;;;6190715;23;20171;-83
2022/08/26 12:34:57;;;;;;;2.10;0.50;;;;;;;;;;6190080;23;20202;-83
2022/08/26 12:37:29;;;;;;;0.60;0.60;;;;;;;;;;6190439;23;20255;-83
2022/08/26 12:40:18;;;;;;;2.57;2.37;;;;;;;;;;6189935;23;20206;-83
2022/08/26 12:42:49;;;;;;;0.60;0.60;;;;;;;;;;6190713;23;20175;-83
2022/08/26 12:45:36;;;;;;;0.80;0.80;;;;;;;;;;6190425;23;20178;-84
2022/08/26 12:48:08;;;;;;;0.93;0.93;;;;;;;;;;6186383;23;20282;-83
2022/08/26 12:50:38;;;;;;;3.13;1.00;;;;;;;;;;6190280;23;20251;-84
2022/08/26 12:53:15;;;;;;;0.70;0.70;;;;;;;;;;6190167;23;20178;-83
2022/08/26 12:55:50;;;;;;;3.20;1.23;;;;;;;;;;6189702;23;20189;-83
2022/08/26 12:58:31;;;;;;;0.87;0.77;;;;;;;;;;6190899;23;20209;-83
2022/08/26 13:01:17;;;;;;;2.80;1.10;;;;;;;;;;6190396;23;20264;-83
2022/08/26 13:03:50;;;;;;;4.93;1.37;;;;;;;;;;6190086;23;20176;-83
2022/08/26 13:06:28;;;;;;;1.33;0.90;;;;;;;;;;6189942;23;20177;-84
2022/08/26 13:09:04;;;;;;;3.83;0.73;;;;;;;;;;6216604;23;20186;-84
2022/08/26 13:11:34;;;;;;;0.60;0.60;;;;;;;;;;6188968;23;20203;-84
2022/08/26 13:14:09;;;;;;;0.90;0.90;;;;;;;;;;6190393;23;20183;-84
2022/08/26 13:16:50;;;;;;;0.70;0.70;;;;;;;;;;6190012;23;20209;-84
2022/08/26 13:19:26;;;;;;;0.53;0.53;;;;;;;;;;6190114;23;20183;-84
2022/08/26 13:22:06;;;;;;;0.93;0.60;;;;;;;;;;6189656;23;20186;-84
2022/08/26 13:24:37;;;;;;;6.63;1.17;;;;;;;;;;6189929;23;20178;-84
2022/08/26 13:27:20;;;;;;;1.03;0.73;;;;;;;;;;6189653;23;20198;-84
2022/08/26 13:33:01;;;;;;;1.20;0.70;;;;;;;;;;6187951;23;20180;-84
2022/08/26 13:35:43;;;;;;;0.57;0.50;;;;;;;;;;6189531;23;20204;-83
2022/08/26 13:38:17;;;;;;;2.00;0.93;;;;;;;;;;6189960;23;20182;-84
2022/08/26 13:41:03;;;;;;;3.90;1.20;;;;;;;;;;6189681;23;20213;-83
2022/08/26 13:43:40;;;;;;;6.17;1.17;;;;;;;;;;6189733;23;20205;-84
2022/08/26 13:46:09;;;;;;;0.87;0.63;;;;;;;;;;6189238;23;20187;-84
2022/08/26 13:48:40;;;;;;;0.50;0.50;;;;;;;;;;6189766;23;20191;-85
2022/08/26 13:51:15;;;;;;;1.47;1.37;;;;;;;;;;6216389;23;20170;-84
2022/08/26 13:53:44;;;;;;;0.77;0.77;;;;;;;;;;6189674;23;20208;-84
2022/08/26 13:56:13;;;;;;;1.13;1.03;;;;;;;;;;6189335;23;20269;-84
2022/08/26 13:58:43;;;;;;;1.47;1.37;;;;;;;;;;6189793;23;20175;-84
2022/08/26 14:01:14;;;;;;;1.73;0.70;;;;;;;;;;6189425;23;20176;-84
2022/08/26 14:03:45;;;;;;;6.23;1.30;;;;;;;;;;6189633;23;20175;-84
2022/08/26 14:06:26;;;;;;;6.30;1.00;;;;;;;;;;6189240;23;20190;-84
2022/08/26 14:09:01;;;;;;;3.50;1.27;;;;;;;;;;6189269;23;20214;-84
2022/08/26 14:11:35;;;;;;;2.00;1.20;;;;;;;;;;6190021;23;20186;-84
2022/08/26 14:14:21;;;;;;;2.07;1.23;;;;;;;;;;6189752;23;20177;-84
2022/08/26 14:16:50;;;;;;;1.60;1.50;;;;;;;;;;6189249;23;20179;-84
2022/08/26 14:19:28;;;;;;;1.47;1.17;;;;;;;;;;6189802;23;20228;-84
2022/08/26 14:22:01;;;;;;;1.33;0.97;;;;;;;;;;6188861;23;20180;-84
2022/08/26 14:24:34;;;;;;;6.57;1.47;;;;;;;;;;6189879;23;20198;-84
2022/08/26 14:27:05;;;;;;;1.07;0.90;;;;;;;;;;6189211;23;20175;-84
2022/08/26 14:29:34;;;;;;;1.70;1.40;;;;;;;;;;6189419;23;20201;-84
2022/08/26 14:32:10;;;;;;;0.87;0.70;;;;;;;;;;6189431;23;20205;-84
2022/08/26 14:34:40;;;;;;;6.97;1.30;;;;;;;;;;6189104;23;20265;-84
2022/08/26 14:37:10;;;;;;;1.13;1.10;;;;;;;;;;6189646;23;20187;-84
2022/08/26 14:39:43;;;;;;;12.27;1.40;;;;;;;;;;6189212;23;20204;-84
2022/08/26 14:42:13;;;;;;;0.80;0.80;;;;;;;;;;6189712;23;20249;-84
2022/08/26 14:44:47;;;;;;;5.17;1.47;;;;;;;;;;6189703;23;20180;-84
2022/08/26 14:47:23;;;;;;;0.77;0.77;;;;;;;;;;6189216;23;20178;-84
2022/08/26 14:49:58;;;;;;;1.20;0.77;;;;;;;;;;6189242;23;20199;-84
2022/08/26 14:52:28;;;;;;;3.83;1.23;;;;;;;;;;6189443;23;20205;-83
2022/08/26 14:55:01;;;;;;;0.97;0.90;;;;;;;;;;6189315;23;20182;-84
2022/08/26 14:57:30;;;;;;;1.60;1.10;;;;;;;;;;6189587;23;20338;-84
2022/08/26 15:00:00;;;;;;;1.90;1.40;;;;;;;;;;6189399;23;20188;-84
2022/08/26 15:02:31;;;;;;;1.33;1.17;;;;;;;;;;6189403;23;20181;-84
2022/08/26 15:05:01;;;;;;;2.33;1.00;;;;;;;;;;6189279;23;20228;-84
2022/08/26 15:07:31;;;;;;;1.77;1.20;;;;;;;;;;6189297;23;20218;-84
2022/08/26 15:10:06;;;;;;;0.83;0.60;;;;;;;;;;6189406;23;20217;-83
2022/08/26 15:12:35;;;;;;;1.30;1.20;;;;;;;;;;6189497;23;20174;-84
2022/08/26 15:15:04;;;;;;;1.53;1.43;;;;;;;;;;6189498;23;20229;-84
2022/08/26 15:17:32;;;;;;;1.90;1.00;;;;;;;;;;6188965;23;20182;-84
2022/08/26 15:20:01;;;;;;;2.03;1.60;;;;;;;;;;6190517;23;20178;-84
2022/08/26 15:22:34;;;;;;;1.50;0.97;;;;;;;;;;6191367;23;20230;-84
2022/08/26 15:25:03;;;;;;;2.47;1.33;;;;;;;;;;6190963;23;20198;-84
2022/08/26 15:27:31;;;;;;;3.90;1.67;;;;;;;;;;6217420;23;20170;-84
2022/08/26 15:30:02;;;;;;;1.10;1.10;;;;;;;;;;6191156;23;20201;-84
2022/08/26 15:32:30;;;;;;;1.43;1.33;;;;;;;;;;6190793;23;20179;-84
2022/08/26 15:34:59;;;;;;;3.93;1.90;;;;;;;;;;6190848;23;20294;-84
2022/08/26 15:37:27;;;;;;;2.10;1.03;;;;;;;;;;6190997;23;20186;-84
2022/08/26 15:39:57;;;;;;;9.60;1.57;;;;;;;;;;6217365;23;20184;-84
2022/08/26 15:42:25;;;;;;;9.83;1.90;;;;;;;;;;6191122;23;20175;-84
2022/08/26 15:44:54;;;;;;;1.20;1.20;;;;;;;;;;6191064;23;20185;-84
2022/08/26 15:47:23;;;;;;;1.10;1.00;;;;;;;;;;6190999;23;20185;-84
2022/08/26 15:49:51;;;;;;;1.53;0.83;;;;;;;;;;6217642;23;20194;-83
2022/08/26 15:52:19;;;;;;;1.07;0.80;;;;;;;;;;6191210;23;20213;-84
2022/08/26 15:54:48;;;;;;;0.80;0.80;;;;;;;;;;6217038;23;20175;-84
2022/08/26 15:57:19;;;;;;;1.53;1.33;;;;;;;;;;6217204;23;20174;-83
2022/08/26 15:59:47;;;;;;;2.10;1.13;;;;;;;;;;6191112;23;20171;-83
2022/08/26 16:02:17;;;;;;;1.47;1.37;;;;;;;;;;6190659;23;20207;-84
2022/08/26 16:04:45;;;;;;;0.80;0.80;;;;;;;;;;6190549;23;20172;-84
2022/08/26 16:07:14;;;;;;;1.80;1.03;;;;;;;;;;6190557;23;20214;-84
2022/08/26 16:09:42;;;;;;;1.53;1.43;;;;;;;;;;6216863;23;20188;-84
2022/08/26 16:12:12;;;;;;;1.30;1.20;;;;;;;;;;6190665;23;20177;-84
2022/08/26 16:14:42;;;;;;;4.60;1.47;;;;;;;;;;6217036;23;20174;-84
2022/08/26 16:17:11;;;;;;;1.10;1.03;;;;;;;;;;6190605;23;20190;-83
2022/08/26 16:19:39;;;;;;;2.33;1.23;;;;;;;;;;6190314;23;20175;-84
2022/08/26 16:22:07;;;;;;;1.23;0.97;;;;;;;;;;6217054;23;20183;-84
2022/08/26 16:24:36;;;;;;;1.37;1.23;;;;;;;;;;6190687;23;20197;-84
2022/08/26 16:27:07;;;;;;;0.97;0.93;;;;;;;;;;6190499;23;20185;-84
2022/08/26 16:29:35;;;;;;;2.63;1.43;;;;;;;;;;6190856;23;20182;-84
2022/08/26 16:32:07;;;;;;;2.00;1.27;;;;;;;;;;6189924;23;20216;-84
2022/08/26 16:34:36;;;;;;;0.70;0.70;;;;;;;;;;6190486;23;20176;-83
2022/08/26 16:37:14;;;;;;;1.87;1.33;;;;;;;;;;6190584;23;20211;-84
2022/08/26 16:39:42;;;;;;;3.30;2.70;;;;;;;;;;6216877;23;20183;-84
2022/08/26 16:42:12;;;;;;;1.60;1.30;;;;;;;;;;6160241;23;20268;-84